Sherbro International Airport

Jump to: basic info | weather | comments

Related pages: nearby airports | nearby navaids | notams | map

Basic information (top)

Codes: BTE GFBN
Location: lon 7.532420, lat -12.518900, elev 14 ft / 4 m msl
Status: medium_airport
Scheduled airline service: yes
Links: Wikipedia Mobile

Weather (top)

Current conditions for Lungi International Airport 77nm (142km) NNW (rec'd 2014/07/24 22:00Z):

GFLL 242200Z 26010KT 9999 BKN012 FEW027CB 28/25 Q1014 RMK-CB NE

Airport forecast for Lungi International Airport 77nm (142km) NNW (rec'd 2014/07/24 18:00Z):

TAF GFLL 241600Z 2418/2524 24010KT 9999 BKN013 FEW027CB PROB30 
      TEMPO 2419/2501 4000 TSRA BKN005 FEW026 
      BECMG 2502/2504 500 RA BKN007 
      TEMPO 2505/2511 05006KT 9999 BKN012 FEW027CB

Latest comments (top)

No comments yet for Sherbro International Airport

More... (top)

See also NOTAMs and nearby airports and navaids, or visit the Sherbro International Airport page at the main OurAirports website..